Terminal Aerodrome Forecast
Issued by NWS

Home | Current Version | Previous Version | Text Only | Print | Product List | Glossary Off
Versions: 1 2 3 4 5 6 7 8 9 10 11 12 13 14 15 16 17 18 19 20 21 22 23 24 25 26 27 28 29 30 31 32 33

280
FTUS43 KLOT 290520
TAFMDW
TAF
KMDW 290520Z 2906/3006 06006KT 4SM BR BKN005 OVC010
     FM290800 06006KT 1SM BR OVC003
     FM291500 07013KT P6SM FEW005 BKN120
     FM292100 07014G22KT P6SM SCT060 BKN100
     FM300100 07010KT P6SM SCT030 OVC060=

USA.gov is the U.S. government's official web portal to all federal, state and local government web resources and services.